createdAt,value
2023-06-17T00:00:14.237Z,90.82
2023-06-17T00:02:42.431Z,90.64
2023-06-17T00:05:11.569Z,91.18
2023-06-17T00:07:42.482Z,91.45
2023-06-17T00:10:11.771Z,91.71
2023-06-17T00:12:40.238Z,92.55
2023-06-17T00:15:09.997Z,93.08
2023-06-17T00:17:38.104Z,92.34
2023-06-17T00:20:11.345Z,91.67
2023-06-17T00:22:41.658Z,92.12
2023-06-17T00:25:11.387Z,92.45
2023-06-17T00:27:39.890Z,92.54
2023-06-17T00:30:09.037Z,92.27
2023-06-17T00:32:37.982Z,91.84
2023-06-17T00:35:07.207Z,91.99
2023-06-17T00:37:35.501Z,92.33
2023-06-17T00:40:09.037Z,91.73
2023-06-17T00:42:37.576Z,91.66
2023-06-17T00:45:07.003Z,91.17
2023-06-17T00:47:35.391Z,90.96
2023-06-17T00:50:05.088Z,90.88
2023-06-17T00:52:42.072Z,91.12
2023-06-17T00:55:13.336Z,91.31
2023-06-17T00:57:41.829Z,91.91
2023-06-17T01:00:12.735Z,92.57
2023-06-17T01:02:42.291Z,92.81
2023-06-17T01:05:13.715Z,93.41
2023-06-17T01:07:51.645Z,93.42
2023-06-17T01:10:26.552Z,93.29
2023-06-17T01:12:56.253Z,93.90
2023-06-17T01:15:25.093Z,93.89
2023-06-17T01:17:55.490Z,94.57
2023-06-17T01:20:26.916Z,94.90
2023-06-17T01:22:56.222Z,94.89
2023-06-17T01:25:30.869Z,94.85
2023-06-17T01:28:01.978Z,94.71
2023-06-17T01:30:33.424Z,94.75
2023-06-17T01:33:03.894Z,94.52
2023-06-17T01:35:33.903Z,94.60
2023-06-17T01:38:08.182Z,94.59
2023-06-17T01:40:40.688Z,94.72
2023-06-17T01:43:09.978Z,94.76
2023-06-17T01:45:38.402Z,94.78
2023-06-17T01:48:06.940Z,94.72
2023-06-17T01:50:35.127Z,94.97
2023-06-17T01:53:03.241Z,94.67
2023-06-17T01:55:31.374Z,94.81
2023-06-17T01:58:00.991Z,94.77
2023-06-17T02:00:29.204Z,94.76
2023-06-17T02:02:57.430Z,94.88
2023-06-17T02:05:25.660Z,94.75
2023-06-17T02:07:54.801Z,94.85
2023-06-17T02:10:23.485Z,94.91
2023-06-17T02:12:51.689Z,95.54
2023-06-17T02:15:21.368Z,95.36
2023-06-17T02:17:49.535Z,95.86
2023-06-17T02:20:17.736Z,96.00
2023-06-17T02:22:46.038Z,96.08
2023-06-17T02:25:14.141Z,95.83
2023-06-17T02:27:42.275Z,96.13
2023-06-17T02:30:12.177Z,95.93
2023-06-17T02:32:41.795Z,96.24
2023-06-17T02:35:11.581Z,96.03
2023-06-17T02:37:39.866Z,96.10
2023-06-17T02:40:10.493Z,95.78
2023-06-17T02:42:39.100Z,95.87
2023-06-17T02:45:08.405Z,95.42
2023-06-17T02:47:36.703Z,95.39
2023-06-17T02:50:08.288Z,95.72
2023-06-17T02:52:38.299Z,95.45
2023-06-17T02:55:07.593Z,95.35
2023-06-17T02:57:36.811Z,95.57
2023-06-17T03:00:07.561Z,95.22
2023-06-17T03:02:35.849Z,95.68
2023-06-17T03:05:04.509Z,95.90
2023-06-17T03:07:37.073Z,96.08
2023-06-17T03:10:05.602Z,95.68
2023-06-17T03:12:33.676Z,96.21
2023-06-17T03:15:02.046Z,96.18
2023-06-17T03:17:30.125Z,96.41
2023-06-17T03:20:00.418Z,96.04
2023-06-17T03:22:28.531Z,96.23
2023-06-17T03:24:58.027Z,95.92
2023-06-17T03:27:26.244Z,95.95
2023-06-17T03:29:54.345Z,95.81
2023-06-17T03:32:22.490Z,95.79
2023-06-17T03:34:50.635Z,95.24
2023-06-17T03:37:18.726Z,95.00
2023-06-17T03:39:46.857Z,94.82
2023-06-17T03:42:17.217Z,94.52
2023-06-17T03:44:45.353Z,94.58
2023-06-17T03:47:13.699Z,94.25
2023-06-17T03:49:41.835Z,93.96
2023-06-17T03:52:10.091Z,93.86
2023-06-17T03:54:38.524Z,93.63
2023-06-17T03:57:07.358Z,93.59
2023-06-17T03:59:38.239Z,93.79
2023-06-17T04:02:06.715Z,94.64
2023-06-17T04:04:35.979Z,94.49
2023-06-17T04:07:05.282Z,95.03
2023-06-17T04:09:33.596Z,94.51
2023-06-17T04:12:01.847Z,94.39
2023-06-17T04:14:29.998Z,94.53
2023-06-17T04:17:00.393Z,94.17
2023-06-17T04:19:28.712Z,94.37
2023-06-17T04:21:56.786Z,94.40
2023-06-17T04:24:24.968Z,93.41
2023-06-17T04:26:53.999Z,93.52
2023-06-17T04:29:22.248Z,93.64
2023-06-17T04:31:51.012Z,94.06
2023-06-17T04:34:23.704Z,93.95
2023-06-17T04:36:58.335Z,93.61
2023-06-17T04:39:27.486Z,93.80
2023-06-17T04:41:55.629Z,93.76
2023-06-17T04:44:23.842Z,93.67
2023-06-17T04:46:51.971Z,93.60
2023-06-17T04:49:21.872Z,93.86
2023-06-17T04:51:49.965Z,94.04
2023-06-17T04:54:19.568Z,93.86
2023-06-17T04:56:49.675Z,93.88
2023-06-17T04:59:19.401Z,93.85
2023-06-17T05:01:47.584Z,93.44
2023-06-17T05:04:15.822Z,92.21
2023-06-17T05:06:45.310Z,92.80
2023-06-17T05:09:13.534Z,92.68
2023-06-17T05:11:41.925Z,92.78
2023-06-17T05:14:10.078Z,91.23
2023-06-17T05:16:38.271Z,91.66
2023-06-17T05:19:06.425Z,92.22
2023-06-17T05:21:34.524Z,92.37
2023-06-17T05:24:04.199Z,92.30
2023-06-17T05:26:32.385Z,92.62
2023-06-17T05:29:00.537Z,92.31
2023-06-17T05:31:28.651Z,92.29
2023-06-17T05:33:56.784Z,92.30
2023-06-17T05:36:26.640Z,91.90
2023-06-17T05:38:54.898Z,92.06
2023-06-17T05:41:24.396Z,91.30
2023-06-17T05:43:52.454Z,90.76
2023-06-17T05:46:20.756Z,90.67
2023-06-17T05:48:48.904Z,90.25
2023-06-17T05:51:17.849Z,90.42
2023-06-17T05:53:47.066Z,90.48
2023-06-17T05:56:15.340Z,90.32
2023-06-17T05:58:45.023Z,90.60
2023-06-17T06:01:13.156Z,90.66
2023-06-17T06:03:41.294Z,90.76
2023-06-17T06:06:09.445Z,90.59
2023-06-17T06:08:37.571Z,91.05
2023-06-17T06:11:05.896Z,90.58
2023-06-17T06:13:33.993Z,91.19
2023-06-17T06:16:04.934Z,91.00
2023-06-17T06:18:33.115Z,91.04
2023-06-17T06:21:01.214Z,90.48
2023-06-17T06:23:30.609Z,90.38
2023-06-17T06:25:58.744Z,90.61
2023-06-17T06:28:26.867Z,90.27
2023-06-17T06:30:54.965Z,89.42
2023-06-17T06:33:24.676Z,89.16
2023-06-17T06:35:52.810Z,88.78
2023-06-17T06:38:20.989Z,88.30
2023-06-17T06:40:49.176Z,88.79
2023-06-17T06:43:17.258Z,88.52
2023-06-17T06:45:45.688Z,88.39
2023-06-17T06:48:14.611Z,87.92
2023-06-17T06:50:44.154Z,88.58
2023-06-17T06:53:12.236Z,87.99
2023-06-17T06:55:41.072Z,86.64
2023-06-17T06:58:09.177Z,86.42
2023-06-17T07:00:37.292Z,86.44
2023-06-17T07:03:05.484Z,86.40
2023-06-17T07:05:33.639Z,85.43
2023-06-17T07:08:03.686Z,85.30
2023-06-17T07:10:31.815Z,83.04
2023-06-17T07:12:59.928Z,82.00
2023-06-17T07:15:28.027Z,81.51
2023-06-17T07:17:56.178Z,81.16
2023-06-17T07:20:24.459Z,79.45
2023-06-17T07:22:52.613Z,77.88
2023-06-17T07:25:22.155Z,75.07
2023-06-17T07:27:51.805Z,73.88
2023-06-17T07:30:20.310Z,70.85
2023-06-17T07:32:48.653Z,69.52
2023-06-17T07:35:16.920Z,68.60
2023-06-17T07:37:45.029Z,68.10
2023-06-17T07:40:14.850Z,67.70
2023-06-17T07:42:44.800Z,66.10
2023-06-17T07:45:13.422Z,64.94
2023-06-17T07:47:41.750Z,65.10
2023-06-17T07:50:10.721Z,64.38
2023-06-17T07:52:39.030Z,62.84
2023-06-17T07:55:09.588Z,61.23
2023-06-17T07:57:37.830Z,60.13
2023-06-17T08:00:11.821Z,61.84
2023-06-17T08:02:40.041Z,61.07
2023-06-17T08:05:08.707Z,58.69
2023-06-17T08:07:37.379Z,58.48
2023-06-17T08:10:08.850Z,56.18
2023-06-17T08:12:38.101Z,56.86
2023-06-17T08:15:09.144Z,58.52
2023-06-17T08:17:37.535Z,57.76
2023-06-17T08:20:06.557Z,57.28
2023-06-17T08:22:34.733Z,57.83
2023-06-17T08:25:02.861Z,56.39
2023-06-17T08:27:32.211Z,56.67
2023-06-17T08:30:00.869Z,54.77
2023-06-17T08:32:30.456Z,53.92
2023-06-17T08:34:58.648Z,53.49
2023-06-17T08:37:26.793Z,53.13
2023-06-17T08:39:54.910Z,53.14
2023-06-17T08:42:23.394Z,51.27
2023-06-17T08:44:53.570Z,50.95
2023-06-17T08:47:22.676Z,50.53
2023-06-17T08:49:52.389Z,49.92
2023-06-17T08:52:20.635Z,49.57
2023-06-17T08:54:49.739Z,49.63
2023-06-17T08:57:19.143Z,50.65
2023-06-17T08:59:47.581Z,48.88
2023-06-17T09:02:16.851Z,48.78
2023-06-17T09:04:45.064Z,47.65
2023-06-17T09:07:14.742Z,48.77
2023-06-17T09:09:48.553Z,48.47
2023-06-17T09:12:16.711Z,48.51
2023-06-17T09:14:46.394Z,47.94
2023-06-17T09:17:29.666Z,47.69
2023-06-17T09:19:57.790Z,49.49
2023-06-17T09:22:28.554Z,46.88
2023-06-17T09:24:59.841Z,46.83
2023-06-17T09:27:28.569Z,46.03
2023-06-17T09:30:10.513Z,45.15
2023-06-17T09:32:39.714Z,46.83
2023-06-17T09:35:09.553Z,46.58
2023-06-17T09:37:42.409Z,44.10
2023-06-17T09:40:18.962Z,43.50
2023-06-17T09:42:47.995Z,43.78
2023-06-17T09:45:20.109Z,45.20
2023-06-17T09:47:53.492Z,44.36
2023-06-17T09:50:24.332Z,42.67
2023-06-17T09:52:57.036Z,44.19
2023-06-17T09:55:25.779Z,43.00
2023-06-17T09:57:54.915Z,40.66
2023-06-17T10:00:25.566Z,39.62
2023-06-17T10:02:54.534Z,39.13
2023-06-17T10:05:24.935Z,37.45
2023-06-17T10:07:55.913Z,37.67
2023-06-17T10:10:25.303Z,36.59
2023-06-17T10:12:54.943Z,34.18
2023-06-17T10:15:23.813Z,34.22
2023-06-17T10:17:53.096Z,33.88
2023-06-17T10:20:23.290Z,33.85
2023-06-17T10:22:55.824Z,33.69
2023-06-17T10:25:26.357Z,34.09
2023-06-17T10:27:54.439Z,34.91
2023-06-17T10:30:25.631Z,34.08
2023-06-17T10:32:57.525Z,33.52
2023-06-17T10:35:26.357Z,33.21
2023-06-17T10:37:54.439Z,34.91
2023-06-17T10:40:28.199Z,34.45
2023-06-17T10:42:59.185Z,33.87
2023-06-17T10:45:30.294Z,33.61
2023-06-17T10:48:15.973Z,33.92
2023-06-17T10:50:44.232Z,32.82
2023-06-17T10:53:16.973Z,33.46
2023-06-17T10:55:47.529Z,33.06
2023-06-17T10:58:15.659Z,32.95
2023-06-17T11:00:43.815Z,32.95
2023-06-17T11:03:12.100Z,33.20
2023-06-17T11:05:40.747Z,32.93
2023-06-17T11:08:12.599Z,33.75
2023-06-17T11:10:40.746Z,32.86
2023-06-17T11:13:10.275Z,33.90
2023-06-17T11:15:38.481Z,33.12
2023-06-17T11:18:08.025Z,32.81
2023-06-17T11:20:36.747Z,34.40
2023-06-17T11:23:05.604Z,33.86
2023-06-17T11:25:44.407Z,33.29
2023-06-17T11:28:15.997Z,33.90
2023-06-17T11:30:44.231Z,32.71
2023-06-17T11:33:12.462Z,32.67
2023-06-17T11:35:41.005Z,32.70
2023-06-17T11:38:09.980Z,32.40
2023-06-17T11:40:41.865Z,32.88
2023-06-17T11:43:10.232Z,32.52
2023-06-17T11:45:39.965Z,33.15
2023-06-17T11:48:08.236Z,33.14
2023-06-17T11:50:38.676Z,31.94
2023-06-17T11:53:06.933Z,31.42
2023-06-17T11:55:35.889Z,32.26
2023-06-17T11:58:05.477Z,31.60
2023-06-17T12:00:36.577Z,32.90
2023-06-17T12:03:06.681Z,33.57
2023-06-17T12:05:34.922Z,32.79
2023-06-17T12:08:03.344Z,32.05
2023-06-17T12:10:31.527Z,31.72
2023-06-17T12:13:00.071Z,32.02
2023-06-17T12:18:11.952Z,33.02
2023-06-17T12:20:40.784Z,32.01
2023-06-17T12:23:08.917Z,32.67
2023-06-17T12:25:37.061Z,33.51
2023-06-17T12:28:05.234Z,32.05
2023-06-17T12:30:34.828Z,32.68
2023-06-17T12:33:03.307Z,32.33
2023-06-17T12:35:32.854Z,31.76
2023-06-17T12:38:01.002Z,32.14
2023-06-17T12:40:29.805Z,31.95
2023-06-17T12:42:57.916Z,32.72
2023-06-17T12:45:28.255Z,31.74
2023-06-17T12:47:57.137Z,32.23
2023-06-17T12:50:25.744Z,31.86
2023-06-17T12:52:56.597Z,31.18
2023-06-17T12:55:24.752Z,32.19
2023-06-17T12:57:52.886Z,31.85
2023-06-17T13:00:21.069Z,30.92
2023-06-17T13:02:49.612Z,30.57
2023-06-17T13:05:18.048Z,31.02
2023-06-17T13:07:46.206Z,32.60
2023-06-17T13:10:16.198Z,32.01
2023-06-17T13:12:44.366Z,31.84
2023-06-17T13:15:12.828Z,30.81
2023-06-17T13:17:42.107Z,30.88
2023-06-17T13:20:11.145Z,32.14
2023-06-17T13:22:39.397Z,30.87
2023-06-17T13:25:08.441Z,30.53
2023-06-17T13:27:38.005Z,30.76
2023-06-17T13:30:07.120Z,30.85
2023-06-17T13:32:35.286Z,30.64
2023-06-17T13:35:05.177Z,31.20
2023-06-17T13:37:33.433Z,29.89
2023-06-17T13:40:01.581Z,31.35
2023-06-17T13:42:29.749Z,31.03
2023-06-17T13:45:00.312Z,30.28
2023-06-17T13:47:28.787Z,29.86
2023-06-17T13:49:57.370Z,30.17
2023-06-17T13:52:25.487Z,30.05
2023-06-17T13:54:53.675Z,30.73
2023-06-17T13:57:21.816Z,31.63
2023-06-17T13:59:50.423Z,30.56
2023-06-17T14:02:20.180Z,31.36
2023-06-17T14:04:48.359Z,31.12
2023-06-17T14:07:16.465Z,30.06
2023-06-17T14:09:44.701Z,30.50
2023-06-17T14:12:13.205Z,31.59
2023-06-17T14:14:41.340Z,31.41
2023-06-17T14:17:09.491Z,31.25
2023-06-17T14:19:39.304Z,31.57
2023-06-17T14:22:08.156Z,31.84
2023-06-17T14:24:38.885Z,32.01
2023-06-17T14:27:32.768Z,31.13
2023-06-17T14:30:00.901Z,31.22
2023-06-17T14:32:29.094Z,31.96
2023-06-17T14:34:59.964Z,32.45
2023-06-17T14:37:30.031Z,31.66
2023-06-17T14:39:58.505Z,32.14
2023-06-17T14:42:26.761Z,32.69
2023-06-17T14:44:54.890Z,32.92
2023-06-17T14:47:23.237Z,33.16
2023-06-17T14:49:51.571Z,34.02
2023-06-17T14:52:21.094Z,33.86
2023-06-17T14:54:49.232Z,33.76
2023-06-17T14:57:17.438Z,34.23
2023-06-17T14:59:46.183Z,34.19
2023-06-17T15:02:43.120Z,34.15
2023-06-17T15:05:11.385Z,34.00
2023-06-17T15:07:40.910Z,34.28
2023-06-17T15:10:09.888Z,34.62
2023-06-17T15:12:42.854Z,34.75
2023-06-17T15:15:12.763Z,34.79
2023-06-17T15:17:42.342Z,34.58
2023-06-17T15:20:11.582Z,35.22
2023-06-17T15:22:41.188Z,34.87
2023-06-17T15:25:10.024Z,34.66
2023-06-17T15:27:38.158Z,34.66
2023-06-17T15:30:07.686Z,35.33
2023-06-17T15:32:35.925Z,34.94
2023-06-17T15:35:04.157Z,34.76
2023-06-17T15:37:33.808Z,34.48
2023-06-17T15:40:05.110Z,35.71
2023-06-17T15:42:33.237Z,35.22
2023-06-17T15:45:01.364Z,35.57
2023-06-17T15:47:29.516Z,36.05
2023-06-17T15:49:57.680Z,37.16
2023-06-17T15:52:27.108Z,37.29
2023-06-17T15:54:56.765Z,37.98
2023-06-17T15:57:26.366Z,37.48
2023-06-17T15:59:54.804Z,38.24
2023-06-17T16:02:22.979Z,38.38
2023-06-17T16:04:54.736Z,38.73
2023-06-17T16:07:23.003Z,39.51
2023-06-17T16:09:53.568Z,40.00
2023-06-17T16:12:22.672Z,40.46
2023-06-17T16:14:52.432Z,40.80
2023-06-17T16:17:21.664Z,41.45
2023-06-17T16:19:49.878Z,42.28
2023-06-17T16:22:18.027Z,42.61
2023-06-17T16:24:46.143Z,43.27
2023-06-17T16:27:14.385Z,43.59
2023-06-17T16:29:42.932Z,43.74
2023-06-17T16:32:12.503Z,44.22
2023-06-17T16:34:40.821Z,44.36
2023-06-17T16:37:08.986Z,44.65
2023-06-17T16:39:37.292Z,46.02
2023-06-17T16:42:07.470Z,46.50
2023-06-17T16:44:36.050Z,46.71
2023-06-17T16:47:04.372Z,46.52
2023-06-17T16:49:33.836Z,47.11
2023-06-17T16:52:02.246Z,48.00
2023-06-17T16:54:30.397Z,47.96
2023-06-17T16:56:58.540Z,48.60
2023-06-17T16:59:26.683Z,47.33
2023-06-17T17:01:56.466Z,47.84
2023-06-17T17:04:24.672Z,48.51
2023-06-17T17:06:54.194Z,47.36
2023-06-17T17:09:22.288Z,46.90
2023-06-17T17:11:50.381Z,47.15
2023-06-17T17:14:18.541Z,46.98
2023-06-17T17:16:46.765Z,46.54
2023-06-17T17:19:14.954Z,46.95
2023-06-17T17:21:43.097Z,46.48
2023-06-17T17:24:12.630Z,46.12
2023-06-17T17:26:41.096Z,45.74
2023-06-17T17:29:09.261Z,46.26
2023-06-17T17:31:37.411Z,47.46
2023-06-17T17:34:05.530Z,49.20
2023-06-17T17:36:33.682Z,49.75
2023-06-17T17:39:01.951Z,50.27
2023-06-17T17:41:31.607Z,51.70
2023-06-17T17:43:59.797Z,52.29
2023-06-17T17:46:28.297Z,52.10
2023-06-17T17:48:56.470Z,52.60
2023-06-17T17:51:24.944Z,53.12
2023-06-17T17:53:53.091Z,54.22
2023-06-17T17:56:21.259Z,53.89
2023-06-17T17:58:51.645Z,53.98
2023-06-17T18:01:19.796Z,54.27
2023-06-17T18:03:48.745Z,54.47
2023-06-17T18:06:17.003Z,54.29
2023-06-17T18:08:45.156Z,55.20
2023-06-17T18:11:13.431Z,55.48
2023-06-17T18:13:41.520Z,56.00
2023-06-17T18:16:11.100Z,55.83
2023-06-17T18:18:39.287Z,56.16
2023-06-17T18:21:07.437Z,56.29
2023-06-17T18:23:35.695Z,56.19
2023-06-17T18:26:03.966Z,55.88
2023-06-17T18:28:32.077Z,55.66
2023-06-17T18:31:00.234Z,57.02
2023-06-17T18:33:29.790Z,57.01
2023-06-17T18:35:58.045Z,57.09
2023-06-17T18:38:26.464Z,56.72
2023-06-17T18:40:54.632Z,57.20
2023-06-17T18:43:22.983Z,57.07
2023-06-17T18:45:51.133Z,57.91
2023-06-17T18:48:19.268Z,57.38
2023-06-17T18:50:49.337Z,57.69
2023-06-17T18:53:17.599Z,58.28
2023-06-17T18:55:45.737Z,58.39
2023-06-17T18:58:13.943Z,58.80
2023-06-17T19:00:42.517Z,59.32
2023-06-17T19:03:10.863Z,59.41
2023-06-17T19:05:40.814Z,60.46
2023-06-17T19:08:10.460Z,60.64
2023-06-17T19:10:38.900Z,61.59
2023-06-17T19:13:07.099Z,62.68
2023-06-17T19:15:36.381Z,62.71
2023-06-17T19:18:04.872Z,63.15
2023-06-17T19:20:33.138Z,63.79
2023-06-17T19:23:01.903Z,64.58
2023-06-17T19:25:31.421Z,65.24
2023-06-17T19:27:59.908Z,65.79
2023-06-17T19:30:28.059Z,66.39
2023-06-17T19:32:56.260Z,66.69
2023-06-17T19:35:24.445Z,67.34
2023-06-17T19:37:52.575Z,67.98
2023-06-17T19:40:21.169Z,68.02
2023-06-17T19:42:50.922Z,68.63
2023-06-17T19:45:19.033Z,68.84
2023-06-17T19:47:47.309Z,69.20
2023-06-17T19:50:15.876Z,69.58
2023-06-17T19:52:44.064Z,69.61
2023-06-17T19:55:13.991Z,70.00
2023-06-17T19:57:42.974Z,70.43
2023-06-17T20:00:14.280Z,70.81
2023-06-17T20:02:42.519Z,71.08
2023-06-17T20:05:12.446Z,71.95
2023-06-17T20:07:40.995Z,72.19
2023-06-17T20:10:10.170Z,72.54
2023-06-17T20:12:38.293Z,72.96
2023-06-17T20:15:07.586Z,73.32
2023-06-17T20:17:37.202Z,73.74
2023-06-17T20:20:06.173Z,74.10
2023-06-17T20:22:34.338Z,74.40
2023-06-17T20:25:02.458Z,74.68
2023-06-17T20:27:30.639Z,75.29
2023-06-17T20:29:58.787Z,75.75
2023-06-17T20:32:27.103Z,76.33
2023-06-17T20:34:59.633Z,76.73
2023-06-17T20:37:27.799Z,77.22
2023-06-17T20:39:56.010Z,77.10
2023-06-17T20:42:24.141Z,77.06
2023-06-17T20:44:52.404Z,77.62
2023-06-17T20:47:20.670Z,77.40
2023-06-17T20:49:49.617Z,77.56
2023-06-17T20:52:19.152Z,78.19
2023-06-17T20:54:47.292Z,78.08
2023-06-17T20:57:15.740Z,78.69
2023-06-17T20:59:44.343Z,78.83
2023-06-17T21:02:15.132Z,79.24
2023-06-17T21:04:44.157Z,79.61
2023-06-17T21:07:12.390Z,79.73
2023-06-17T21:09:42.350Z,79.44
2023-06-17T21:12:11.514Z,79.73
2023-06-17T21:14:42.618Z,80.03
2023-06-17T21:17:10.729Z,79.92
2023-06-17T21:19:38.834Z,80.53
2023-06-17T21:22:07.064Z,80.89
2023-06-17T21:24:35.334Z,81.15
2023-06-17T21:27:10.186Z,81.49
2023-06-17T21:29:38.489Z,81.69
2023-06-17T21:32:07.622Z,81.37
2023-06-17T21:34:35.845Z,81.32
2023-06-17T21:37:04.101Z,81.70
2023-06-17T21:39:32.249Z,81.36
2023-06-17T21:42:00.487Z,81.56
2023-06-17T21:44:31.191Z,82.35
2023-06-17T21:47:00.729Z,82.41
2023-06-17T21:49:28.846Z,82.29
2023-06-17T21:51:57.479Z,82.41
2023-06-17T21:54:25.586Z,82.77
2023-06-17T21:56:53.747Z,82.74
2023-06-17T21:59:21.945Z,83.16
2023-06-17T22:01:51.483Z,83.04
2023-06-17T22:04:19.645Z,83.23
2023-06-17T22:06:47.783Z,83.60
2023-06-17T22:09:15.981Z,84.11
2023-06-17T22:11:44.166Z,83.99
2023-06-17T22:14:12.499Z,83.68
2023-06-17T22:16:42.308Z,83.95
2023-06-17T22:19:11.941Z,83.94
2023-06-17T22:21:40.074Z,84.02
2023-06-17T22:24:10.085Z,83.63
2023-06-17T22:26:38.283Z,84.04
2023-06-17T22:29:06.423Z,84.47
2023-06-17T22:31:34.685Z,85.07
2023-06-17T22:34:02.816Z,85.07
2023-06-17T22:36:32.312Z,85.44
2023-06-17T22:39:00.547Z,85.38
2023-06-17T22:41:28.736Z,85.33
2023-06-17T22:43:56.900Z,84.75
2023-06-17T22:46:26.405Z,84.94
2023-06-17T22:48:54.642Z,85.28
2023-06-17T22:51:24.509Z,85.37
2023-06-17T22:53:54.011Z,85.48
2023-06-17T22:56:22.298Z,85.53
2023-06-17T22:58:50.576Z,85.55
2023-06-17T23:01:18.785Z,85.73
2023-06-17T23:03:46.977Z,86.31
2023-06-17T23:06:15.129Z,86.39
2023-06-17T23:08:43.284Z,85.95
2023-06-17T23:11:12.883Z,86.71
2023-06-17T23:13:41.238Z,87.34
2023-06-17T23:16:09.602Z,87.24
2023-06-17T23:18:37.889Z,86.56
2023-06-17T23:21:06.014Z,86.63
2023-06-17T23:23:34.142Z,86.84
2023-06-17T23:26:03.445Z,87.73
2023-06-17T23:28:34.113Z,88.53
2023-06-17T23:31:03.105Z,89.36
2023-06-17T23:33:31.252Z,89.58
2023-06-17T23:35:59.352Z,89.94
2023-06-17T23:38:29.150Z,89.99
2023-06-17T23:40:57.327Z,88.92
2023-06-17T23:43:25.456Z,88.40
2023-06-17T23:45:56.746Z,87.64
2023-06-17T23:48:25.700Z,87.46
2023-06-17T23:50:53.904Z,87.85
2023-06-17T23:53:22.055Z,87.97
2023-06-17T23:55:50.167Z,88.14
2023-06-17T23:58:18.414Z,87.87
